sensor_id;sensor_type;location;lat;lon;timestamp;pressure;altitude;pressure_sealevel;temperature;humidity
60019;BME280;45870;42.528;26.740;2022-10-31T00:02:05;99944.97;;;18.06;38.08
60019;BME280;45870;42.528;26.740;2022-10-31T00:04:31;99938.41;;;18.02;37.73
60019;BME280;45870;42.528;26.740;2022-10-31T00:06:57;99936.19;;;18.14;38.07
60019;BME280;45870;42.528;26.740;2022-10-31T00:09:23;99798.44;;;17.46;38.02
60019;BME280;45870;42.528;26.740;2022-10-31T00:11:49;99939.69;;;18.35;37.48
60019;BME280;45870;42.528;26.740;2022-10-31T00:14:15;99897.44;;;18.02;37.91
60019;BME280;45870;42.528;26.740;2022-10-31T00:16:40;99933.13;;;18.31;38.03
60019;BME280;45870;42.528;26.740;2022-10-31T00:19:08;99938.38;;;18.12;38.66
60019;BME280;45870;42.528;26.740;2022-10-31T00:21:34;99920.38;;;18.06;38.88
60019;BME280;45870;42.528;26.740;2022-10-31T00:24:00;99855.69;;;17.91;38.17
60019;BME280;45870;42.528;26.740;2022-10-31T00:26:27;99930.41;;;18.31;38.49
60019;BME280;45870;42.528;26.740;2022-10-31T00:28:54;99928.03;;;17.99;38.72
60019;BME280;45870;42.528;26.740;2022-10-31T00:31:19;99902.38;;;18.00;38.79
60019;BME280;45870;42.528;26.740;2022-10-31T00:33:45;99925.47;;;18.38;38.49
60019;BME280;45870;42.528;26.740;2022-10-31T00:36:13;99877.50;;;18.07;38.14
60019;BME280;45870;42.528;26.740;2022-10-31T00:38:40;99922.59;;;18.68;37.66
60019;BME280;45870;42.528;26.740;2022-10-31T00:41:05;99760.28;;;17.41;38.53
60019;BME280;45870;42.528;26.740;2022-10-31T00:43:31;99891.53;;;18.44;38.20
60019;BME280;45870;42.528;26.740;2022-10-31T00:45:57;99928.63;;;19.14;37.37
60019;BME280;45870;42.528;26.740;2022-10-31T00:48:22;99927.59;;;19.05;37.72
60019;BME280;45870;42.528;26.740;2022-10-31T00:50:48;99922.63;;;19.12;37.31
60019;BME280;45870;42.528;26.740;2022-10-31T00:53:14;99891.25;;;19.00;37.15
60019;BME280;45870;42.528;26.740;2022-10-31T00:55:39;99912.88;;;19.35;36.65
60019;BME280;45870;42.528;26.740;2022-10-31T00:58:06;99916.44;;;19.69;36.27
60019;BME280;45870;42.528;26.740;2022-10-31T01:00:32;99911.78;;;19.70;36.15
60019;BME280;45870;42.528;26.740;2022-10-31T01:02:58;99920.50;;;19.72;36.25
60019;BME280;45870;42.528;26.740;2022-10-31T01:05:24;99914.63;;;19.60;36.75
60019;BME280;45870;42.528;26.740;2022-10-31T01:07:50;99927.94;;;19.32;37.23
60019;BME280;45870;42.528;26.740;2022-10-31T01:10:15;99923.25;;;19.38;37.48
60019;BME280;45870;42.528;26.740;2022-10-31T01:12:47;99925.72;;;19.73;36.74
60019;BME280;45870;42.528;26.740;2022-10-31T01:15:18;99930.72;;;19.66;36.77
60019;BME280;45870;42.528;26.740;2022-10-31T01:17:44;99926.75;;;19.77;36.69
60019;BME280;45870;42.528;26.740;2022-10-31T01:20:11;99928.81;;;19.90;36.34
60019;BME280;45870;42.528;26.740;2022-10-31T01:22:37;99930.38;;;19.73;36.79
60019;BME280;45870;42.528;26.740;2022-10-31T01:25:04;99888.16;;;19.74;36.34
60019;BME280;45870;42.528;26.740;2022-10-31T01:27:31;99939.72;;;19.95;36.40
60019;BME280;45870;42.528;26.740;2022-10-31T01:29:56;99885.75;;;19.38;36.84
60019;BME280;45870;42.528;26.740;2022-10-31T01:32:22;99934.53;;;19.94;36.38
60019;BME280;45870;42.528;26.740;2022-10-31T01:34:48;99878.91;;;19.70;36.39
60019;BME280;45870;42.528;26.740;2022-10-31T01:37:14;99933.53;;;19.85;36.52
60019;BME280;45870;42.528;26.740;2022-10-31T01:39:40;99937.22;;;19.70;37.01
60019;BME280;45870;42.528;26.740;2022-10-31T01:42:05;99931.09;;;20.07;36.44
60019;BME280;45870;42.528;26.740;2022-10-31T01:46:59;99794.53;;;19.72;35.77
60019;BME280;45870;42.528;26.740;2022-10-31T01:54:29;99919.41;;;20.49;35.82
60019;BME280;45870;42.528;26.740;2022-10-31T01:56:58;99938.97;;;20.42;35.77
60019;BME280;45870;42.528;26.740;2022-10-31T01:59:28;99933.81;;;20.60;35.50
60019;BME280;45870;42.528;26.740;2022-10-31T02:01:55;99899.38;;;20.49;35.69
60019;BME280;45870;42.528;26.740;2022-10-31T02:04:22;99927.63;;;20.49;36.23
60019;BME280;45870;42.528;26.740;2022-10-31T02:06:55;99926.44;;;20.55;36.10
60019;BME280;45870;42.528;26.740;2022-10-31T02:09:22;99889.09;;;20.40;36.04
60019;BME280;45870;42.528;26.740;2022-10-31T02:11:53;99925.97;;;20.72;35.47
60019;BME280;45870;42.528;26.740;2022-10-31T02:14:22;99932.78;;;20.74;35.24
60019;BME280;45870;42.528;26.740;2022-10-31T02:16:50;99931.81;;;20.84;35.55
60019;BME280;45870;42.528;26.740;2022-10-31T02:19:25;99924.63;;;20.88;35.68
60019;BME280;45870;42.528;26.740;2022-10-31T02:22:06;99896.41;;;20.69;35.63
60019;BME280;45870;42.528;26.740;2022-10-31T02:27:16;99923.47;;;20.75;35.65
60019;BME280;45870;42.528;26.740;2022-10-31T02:30:04;99927.81;;;20.76;35.66
60019;BME280;45870;42.528;26.740;2022-10-31T02:35:41;99940.91;;;21.03;35.20
60019;BME280;45870;42.528;26.740;2022-10-31T02:41:10;99948.19;;;21.13;35.31
60019;BME280;45870;42.528;26.740;2022-10-31T02:43:54;99948.13;;;20.94;35.59
60019;BME280;45870;42.528;26.740;2022-10-31T02:46:32;99952.75;;;20.99;35.57
60019;BME280;45870;42.528;26.740;2022-10-31T02:49:05;99951.66;;;21.00;35.32
60019;BME280;45870;42.528;26.740;2022-10-31T02:51:33;99930.50;;;20.39;36.73
60019;BME280;45870;42.528;26.740;2022-10-31T02:54:00;99938.41;;;20.83;36.04
60019;BME280;45870;42.528;26.740;2022-10-31T02:56:26;99953.13;;;20.92;35.74
60019;BME280;45870;42.528;26.740;2022-10-31T02:59:01;99896.41;;;20.45;36.12
60019;BME280;45870;42.528;26.740;2022-10-31T03:07:23;99938.19;;;20.61;36.41
60019;BME280;45870;42.528;26.740;2022-10-31T03:12:51;99954.50;;;21.13;35.88
60019;BME280;45870;42.528;26.740;2022-10-31T03:15:31;99944.81;;;20.97;35.71
60019;BME280;45870;42.528;26.740;2022-10-31T03:20:42;99936.50;;;20.83;35.72
60019;BME280;45870;42.528;26.740;2022-10-31T03:23:13;99966.53;;;20.93;35.91
60019;BME280;45870;42.528;26.740;2022-10-31T03:25:41;99974.03;;;21.07;35.88
60019;BME280;45870;42.528;26.740;2022-10-31T03:28:08;99883.38;;;20.56;36.26
60019;BME280;45870;42.528;26.740;2022-10-31T03:30:38;99959.28;;;21.03;36.12
60019;BME280;45870;42.528;26.740;2022-10-31T03:33:09;99914.25;;;20.85;35.74
60019;BME280;45870;42.528;26.740;2022-10-31T03:35:38;99962.19;;;21.11;35.58
60019;BME280;45870;42.528;26.740;2022-10-31T03:38:08;99963.00;;;21.30;35.35
60019;BME280;45870;42.528;26.740;2022-10-31T03:40:37;99968.06;;;21.42;35.28
60019;BME280;45870;42.528;26.740;2022-10-31T03:43:10;99971.03;;;21.46;35.23
60019;BME280;45870;42.528;26.740;2022-10-31T03:45:43;99959.38;;;21.16;35.46
60019;BME280;45870;42.528;26.740;2022-10-31T03:48:12;99979.25;;;21.46;35.46
60019;BME280;45870;42.528;26.740;2022-10-31T03:50:50;99819.22;;;20.75;34.98
60019;BME280;45870;42.528;26.740;2022-10-31T03:53:26;99975.03;;;21.53;35.20
60019;BME280;45870;42.528;26.740;2022-10-31T03:56:01;99954.75;;;21.49;35.22
60019;BME280;45870;42.528;26.740;2022-10-31T03:58:42;99979.16;;;21.69;35.03
60019;BME280;45870;42.528;26.740;2022-10-31T04:01:16;99973.00;;;21.59;35.23
60019;BME280;45870;42.528;26.740;2022-10-31T04:03:44;99985.78;;;21.50;35.24
60019;BME280;45870;42.528;26.740;2022-10-31T04:06:13;99978.66;;;21.49;35.17
60019;BME280;45870;42.528;26.740;2022-10-31T04:08:49;99982.09;;;21.73;34.61
60019;BME280;45870;42.528;26.740;2022-10-31T04:11:18;99984.69;;;21.83;34.31
60019;BME280;45870;42.528;26.740;2022-10-31T04:13:48;99986.94;;;21.62;34.90
60019;BME280;45870;42.528;26.740;2022-10-31T04:16:15;99972.34;;;21.48;34.82
60019;BME280;45870;42.528;26.740;2022-10-31T04:18:42;99984.34;;;21.71;34.74
60019;BME280;45870;42.528;26.740;2022-10-31T04:21:08;99990.34;;;21.92;34.47
60019;BME280;45870;42.528;26.740;2022-10-31T04:23:35;99981.22;;;21.77;34.64
60019;BME280;45870;42.528;26.740;2022-10-31T04:26:01;99989.72;;;21.95;34.65
60019;BME280;45870;42.528;26.740;2022-10-31T04:28:27;99945.47;;;21.64;34.50
60019;BME280;45870;42.528;26.740;2022-10-31T04:30:53;99978.34;;;21.82;34.45
60019;BME280;45870;42.528;26.740;2022-10-31T04:33:19;100002.38;;;21.77;34.78
60019;BME280;45870;42.528;26.740;2022-10-31T04:35:46;100009.88;;;21.90;34.75
60019;BME280;45870;42.528;26.740;2022-10-31T04:38:12;99971.00;;;21.78;34.75
60019;BME280;45870;42.528;26.740;2022-10-31T04:40:38;100012.97;;;22.02;34.56
60019;BME280;45870;42.528;26.740;2022-10-31T04:43:03;99983.22;;;21.72;34.61
60019;BME280;45870;42.528;26.740;2022-10-31T04:45:29;99992.06;;;21.50;35.05
60019;BME280;45870;42.528;26.740;2022-10-31T04:47:55;100042.88;;;21.85;35.01
60019;BME280;45870;42.528;26.740;2022-10-31T04:50:20;99994.53;;;21.70;34.93
60019;BME280;45870;42.528;26.740;2022-10-31T04:52:47;100007.34;;;21.75;34.62
60019;BME280;45870;42.528;26.740;2022-10-31T04:55:14;100045.41;;;22.00;34.70
60019;BME280;45870;42.528;26.740;2022-10-31T04:57:41;100037.97;;;22.33;33.57
60019;BME280;45870;42.528;26.740;2022-10-31T05:00:08;100042.06;;;22.49;33.48
60019;BME280;45870;42.528;26.740;2022-10-31T05:02:34;99961.25;;;21.85;33.74
60019;BME280;45870;42.528;26.740;2022-10-31T05:04:59;100014.00;;;22.79;32.20
60019;BME280;45870;42.528;26.740;2022-10-31T05:07:25;100055.44;;;23.10;32.01
60019;BME280;45870;42.528;26.740;2022-10-31T05:09:51;100039.19;;;22.73;32.84
60019;BME280;45870;42.528;26.740;2022-10-31T05:12:17;100060.66;;;22.71;33.43
60019;BME280;45870;42.528;26.740;2022-10-31T05:14:42;100057.94;;;22.52;33.90
60019;BME280;45870;42.528;26.740;2022-10-31T05:17:08;100065.66;;;22.23;34.37
60019;BME280;45870;42.528;26.740;2022-10-31T05:19:34;100067.47;;;22.27;33.82
60019;BME280;45870;42.528;26.740;2022-10-31T05:21:59;100060.63;;;22.57;33.41
60019;BME280;45870;42.528;26.740;2022-10-31T05:24:25;100074.22;;;22.81;33.11
60019;BME280;45870;42.528;26.740;2022-10-31T05:26:50;100012.88;;;22.21;33.55
60019;BME280;45870;42.528;26.740;2022-10-31T05:29:16;100076.34;;;22.84;33.11
60019;BME280;45870;42.528;26.740;2022-10-31T05:31:42;100085.56;;;22.79;33.67
60019;BME280;45870;42.528;26.740;2022-10-31T05:34:08;100083.00;;;22.83;33.91
60019;BME280;45870;42.528;26.740;2022-10-31T05:36:34;100045.84;;;22.53;33.99
60019;BME280;45870;42.528;26.740;2022-10-31T05:39:00;100082.25;;;22.91;33.49
60019;BME280;45870;42.528;26.740;2022-10-31T05:41:26;100060.22;;;22.64;33.64
60019;BME280;45870;42.528;26.740;2022-10-31T05:43:52;100086.88;;;22.82;34.13
60019;BME280;45870;42.528;26.740;2022-10-31T05:46:18;100091.91;;;22.48;34.17
60019;BME280;45870;42.528;26.740;2022-10-31T05:48:43;100033.72;;;22.54;33.64
60019;BME280;45870;42.528;26.740;2022-10-31T05:51:09;100066.50;;;22.69;33.45
60019;BME280;45870;42.528;26.740;2022-10-31T05:53:34;100086.34;;;23.21;33.05
60019;BME280;45870;42.528;26.740;2022-10-31T05:56:00;100046.59;;;23.00;32.68
60019;BME280;45870;42.528;26.740;2022-10-31T05:58:26;100095.53;;;24.02;32.13
60019;BME280;45870;42.528;26.740;2022-10-31T06:00:53;100105.75;;;24.46;31.40
60019;BME280;45870;42.528;26.740;2022-10-31T06:03:19;100109.22;;;25.21;30.42
60019;BME280;45870;42.528;26.740;2022-10-31T06:05:45;100110.97;;;25.82;29.41
60019;BME280;45870;42.528;26.740;2022-10-31T06:08:10;100115.50;;;26.21;27.89
60019;BME280;45870;42.528;26.740;2022-10-31T06:10:36;100124.97;;;26.20;28.51
60019;BME280;45870;42.528;26.740;2022-10-31T06:13:02;100128.38;;;26.26;28.35
60019;BME280;45870;42.528;26.740;2022-10-31T06:15:27;100126.56;;;26.04;28.45
60019;BME280;45870;42.528;26.740;2022-10-31T06:18:01;100129.19;;;25.92;28.40
60019;BME280;45870;42.528;26.740;2022-10-31T06:20:27;100126.88;;;26.37;27.97
60019;BME280;45870;42.528;26.740;2022-10-31T06:22:53;100131.22;;;26.64;27.28
60019;BME280;45870;42.528;26.740;2022-10-31T06:25:19;100125.50;;;27.74;25.87
60019;BME280;45870;42.528;26.740;2022-10-31T06:27:44;100125.44;;;28.24;25.19
60019;BME280;45870;42.528;26.740;2022-10-31T06:30:10;100133.47;;;28.38;24.81
60019;BME280;45870;42.528;26.740;2022-10-31T06:32:36;100132.00;;;28.19;25.14
60019;BME280;45870;42.528;26.740;2022-10-31T06:35:02;100133.22;;;27.89;26.03
60019;BME280;45870;42.528;26.740;2022-10-31T06:37:27;100132.69;;;27.96;25.37
60019;BME280;45870;42.528;26.740;2022-10-31T06:39:53;100135.06;;;28.26;25.47
60019;BME280;45870;42.528;26.740;2022-10-31T06:42:19;100142.69;;;28.29;24.89
60019;BME280;45870;42.528;26.740;2022-10-31T06:44:46;100132.59;;;27.84;25.73
60019;BME280;45870;42.528;26.740;2022-10-31T06:47:12;100147.84;;;26.64;27.33
60019;BME280;45870;42.528;26.740;2022-10-31T06:49:37;100131.84;;;28.37;25.24
60019;BME280;45870;42.528;26.740;2022-10-31T06:52:03;100138.63;;;29.05;24.44
60019;BME280;45870;42.528;26.740;2022-10-31T06:54:30;100090.41;;;27.28;26.18
60019;BME280;45870;42.528;26.740;2022-10-31T06:56:55;100142.44;;;29.00;24.17
60019;BME280;45870;42.528;26.740;2022-10-31T06:59:21;100145.31;;;27.64;26.15
60019;BME280;45870;42.528;26.740;2022-10-31T07:01:47;100128.63;;;27.93;25.94
60019;BME280;45870;42.528;26.740;2022-10-31T07:04:13;100139.47;;;28.60;25.14
60019;BME280;45870;42.528;26.740;2022-10-31T07:06:39;100134.94;;;29.61;23.94
60019;BME280;45870;42.528;26.740;2022-10-31T07:09:05;100136.84;;;28.43;25.16
60019;BME280;45870;42.528;26.740;2022-10-31T07:11:30;100139.78;;;26.24;28.26
60019;BME280;45870;42.528;26.740;2022-10-31T07:13:56;100144.66;;;27.67;26.10
60019;BME280;45870;42.528;26.740;2022-10-31T07:16:22;100144.03;;;26.94;27.72
60019;BME280;45870;42.528;26.740;2022-10-31T07:18:48;100149.28;;;26.87;27.21
60019;BME280;45870;42.528;26.740;2022-10-31T07:21:14;100143.47;;;27.09;27.43
60019;BME280;45870;42.528;26.740;2022-10-31T07:23:40;100111.81;;;28.31;25.79
60019;BME280;45870;42.528;26.740;2022-10-31T07:26:07;100150.34;;;29.35;24.31
60019;BME280;45870;42.528;26.740;2022-10-31T07:28:33;100146.28;;;29.08;24.57
60019;BME280;45870;42.528;26.740;2022-10-31T07:30:58;100144.31;;;30.49;22.83
60019;BME280;45870;42.528;26.740;2022-10-31T07:33:24;100149.91;;;30.09;23.15
60019;BME280;45870;42.528;26.740;2022-10-31T07:35:53;100146.72;;;29.83;23.71
60019;BME280;45870;42.528;26.740;2022-10-31T07:38:19;100146.56;;;28.70;25.59
60019;BME280;45870;42.528;26.740;2022-10-31T07:40:50;100139.31;;;27.24;27.95
60019;BME280;45870;42.528;26.740;2022-10-31T07:43:17;100148.09;;;28.05;26.94
60019;BME280;45870;42.528;26.740;2022-10-31T07:45:43;100142.69;;;26.19;29.46
60019;BME280;45870;42.528;26.740;2022-10-31T07:48:08;100148.38;;;26.06;30.41
60019;BME280;45870;42.528;26.740;2022-10-31T07:50:34;100145.22;;;25.56;30.91
60019;BME280;45870;42.528;26.740;2022-10-31T07:53:09;99556.63;;;21.94;31.43
60019;BME280;45870;42.528;26.740;2022-10-31T07:55:35;100149.00;;;26.54;30.14
60019;BME280;45870;42.528;26.740;2022-10-31T07:58:11;100141.84;;;24.80;32.34
60019;BME280;45870;42.528;26.740;2022-10-31T08:00:39;100107.78;;;25.41;31.17
60019;BME280;45870;42.528;26.740;2022-10-31T08:03:09;100148.88;;;25.99;30.67
60019;BME280;45870;42.528;26.740;2022-10-31T08:05:35;100134.06;;;25.78;30.94
60019;BME280;45870;42.528;26.740;2022-10-31T08:08:02;100143.16;;;26.04;30.64
60019;BME280;45870;42.528;26.740;2022-10-31T08:10:28;100149.81;;;25.69;31.43
60019;BME280;45870;42.528;26.740;2022-10-31T08:13:02;100154.25;;;26.13;30.23
60019;BME280;45870;42.528;26.740;2022-10-31T08:15:29;100113.91;;;25.86;30.33
60019;BME280;45870;42.528;26.740;2022-10-31T08:17:55;100158.28;;;26.50;29.79
60019;BME280;45870;42.528;26.740;2022-10-31T08:20:21;100160.22;;;26.58;29.37
60019;BME280;45870;42.528;26.740;2022-10-31T08:22:54;100150.00;;;27.51;28.48
60019;BME280;45870;42.528;26.740;2022-10-31T08:25:20;99987.19;;;25.71;29.41
60019;BME280;45870;42.528;26.740;2022-10-31T08:27:52;100159.56;;;26.61;29.30
60019;BME280;45870;42.528;26.740;2022-10-31T08:30:22;100155.03;;;26.39;30.43
60019;BME280;45870;42.528;26.740;2022-10-31T08:32:57;100144.53;;;26.79;29.07
60019;BME280;45870;42.528;26.740;2022-10-31T08:35:23;100153.06;;;25.97;30.65
60019;BME280;45870;42.528;26.740;2022-10-31T08:37:53;100164.63;;;26.59;29.82
60019;BME280;45870;42.528;26.740;2022-10-31T08:40:20;100164.28;;;26.60;29.64
60019;BME280;45870;42.528;26.740;2022-10-31T08:42:45;100156.66;;;26.57;29.43
60019;BME280;45870;42.528;26.740;2022-10-31T08:45:11;100153.75;;;27.09;29.15
60019;BME280;45870;42.528;26.740;2022-10-31T08:47:37;100153.75;;;27.38;28.74
60019;BME280;45870;42.528;26.740;2022-10-31T08:50:03;100149.47;;;27.99;27.97
60019;BME280;45870;42.528;26.740;2022-10-31T08:52:28;100132.75;;;26.99;29.13
60019;BME280;45870;42.528;26.740;2022-10-31T08:54:55;100145.97;;;28.32;26.75
60019;BME280;45870;42.528;26.740;2022-10-31T08:57:21;100163.38;;;27.70;27.99
60019;BME280;45870;42.528;26.740;2022-10-31T08:59:47;100161.91;;;27.72;27.86
60019;BME280;45870;42.528;26.740;2022-10-31T09:02:12;100158.47;;;27.46;28.66
60019;BME280;45870;42.528;26.740;2022-10-31T09:04:38;100159.56;;;28.04;27.30
60019;BME280;45870;42.528;26.740;2022-10-31T09:07:04;100160.63;;;27.70;27.58
60019;BME280;45870;42.528;26.740;2022-10-31T09:09:29;100162.97;;;27.30;28.37
60019;BME280;45870;42.528;26.740;2022-10-31T09:11:55;100126.31;;;27.74;27.57
60019;BME280;45870;42.528;26.740;2022-10-31T09:14:21;100164.63;;;28.22;27.04
60019;BME280;45870;42.528;26.740;2022-10-31T09:16:46;100169.69;;;26.40;29.50
60019;BME280;45870;42.528;26.740;2022-10-31T09:19:12;100156.09;;;26.90;29.08
60019;BME280;45870;42.528;26.740;2022-10-31T09:21:38;100166.91;;;27.20;28.77
60019;BME280;45870;42.528;26.740;2022-10-31T09:24:04;100153.75;;;27.09;28.68
60019;BME280;45870;42.528;26.740;2022-10-31T09:26:30;100076.19;;;26.54;28.57
60019;BME280;45870;42.528;26.740;2022-10-31T09:28:56;100151.81;;;27.47;28.19
60019;BME280;45870;42.528;26.740;2022-10-31T09:31:23;100163.84;;;27.51;28.00
60019;BME280;45870;42.528;26.740;2022-10-31T09:33:49;100153.69;;;27.26;28.81
60019;BME280;45870;42.528;26.740;2022-10-31T09:36:15;100160.53;;;26.82;28.86
60019;BME280;45870;42.528;26.740;2022-10-31T09:38:40;100164.13;;;26.57;29.66
60019;BME280;45870;42.528;26.740;2022-10-31T09:47:03;100166.78;;;27.55;28.21
60019;BME280;45870;42.528;26.740;2022-10-31T09:50:12;100163.81;;;27.13;28.32
60019;BME280;45870;42.528;26.740;2022-10-31T09:52:44;100153.53;;;27.52;28.00
60019;BME280;45870;42.528;26.740;2022-10-31T09:55:19;100038.53;;;27.28;27.18
60019;BME280;45870;42.528;26.740;2022-10-31T09:57:48;100159.06;;;27.60;28.05
60019;BME280;45870;42.528;26.740;2022-10-31T10:00:18;100145.03;;;27.57;27.93
60019;BME280;45870;42.528;26.740;2022-10-31T10:02:56;100103.19;;;26.74;28.78
60019;BME280;45870;42.528;26.740;2022-10-31T10:05:43;100166.13;;;27.11;28.58
60019;BME280;45870;42.528;26.740;2022-10-31T10:08:19;99971.09;;;26.37;27.90
60019;BME280;45870;42.528;26.740;2022-10-31T10:13:28;100151.31;;;27.07;28.89
60019;BME280;45870;42.528;26.740;2022-10-31T10:21:29;100126.72;;;27.35;27.37
60019;BME280;45870;42.528;26.740;2022-10-31T10:24:09;100131.31;;;28.02;26.94
60019;BME280;45870;42.528;26.740;2022-10-31T10:26:43;100143.84;;;27.87;27.13
60019;BME280;45870;42.528;26.740;2022-10-31T10:31:59;100137.81;;;27.64;27.84
60019;BME280;45870;42.528;26.740;2022-10-31T10:34:31;100143.94;;;28.53;26.55
60019;BME280;45870;42.528;26.740;2022-10-31T10:37:13;100149.19;;;28.34;26.63
60019;BME280;45870;42.528;26.740;2022-10-31T10:39:48;100038.44;;;29.13;24.85
60019;BME280;45870;42.528;26.740;2022-10-31T10:42:16;100134.09;;;29.00;25.24
60019;BME280;45870;42.528;26.740;2022-10-31T10:45:13;100130.91;;;27.50;27.49
60019;BME280;45870;42.528;26.740;2022-10-31T10:48:12;100134.13;;;27.52;27.83
60019;BME280;45870;42.528;26.740;2022-10-31T10:50:46;100140.06;;;27.04;28.57
60019;BME280;45870;42.528;26.740;2022-10-31T10:53:39;100131.81;;;28.24;26.50
60019;BME280;45870;42.528;26.740;2022-10-31T10:56:50;100131.16;;;28.07;26.73
60019;BME280;45870;42.528;26.740;2022-10-31T10:59:20;100127.59;;;27.77;26.69
60019;BME280;45870;42.528;26.740;2022-10-31T11:01:50;100109.69;;;27.74;26.53
60019;BME280;45870;42.528;26.740;2022-10-31T11:07:03;100121.88;;;27.23;27.42
60019;BME280;45870;42.528;26.740;2022-10-31T11:09:30;100117.28;;;27.27;27.62
60019;BME280;45870;42.528;26.740;2022-10-31T11:11:56;100115.59;;;27.44;27.47
60019;BME280;45870;42.528;26.740;2022-10-31T11:14:23;100113.38;;;27.28;27.61
60019;BME280;45870;42.528;26.740;2022-10-31T11:16:55;100118.00;;;27.95;26.53
60019;BME280;45870;42.528;26.740;2022-10-31T11:19:33;100077.34;;;27.58;26.99
60019;BME280;45870;42.528;26.740;2022-10-31T11:22:16;100113.72;;;27.77;26.76
60019;BME280;45870;42.528;26.740;2022-10-31T11:24:42;100112.91;;;27.76;26.94
60019;BME280;45870;42.528;26.740;2022-10-31T11:27:19;100113.47;;;28.44;26.09
60019;BME280;45870;42.528;26.740;2022-10-31T11:29:46;100110.94;;;29.69;24.15
60019;BME280;45870;42.528;26.740;2022-10-31T11:32:23;100110.22;;;27.89;26.37
60019;BME280;45870;42.528;26.740;2022-10-31T11:34:55;100108.91;;;28.60;25.47
60019;BME280;45870;42.528;26.740;2022-10-31T11:37:28;100099.19;;;27.01;27.55
60019;BME280;45870;42.528;26.740;2022-10-31T11:40:04;100098.22;;;29.19;24.68
60019;BME280;45870;42.528;26.740;2022-10-31T11:42:40;100082.91;;;29.25;24.41
60019;BME280;45870;42.528;26.740;2022-10-31T11:45:31;100092.16;;;28.03;26.21
60019;BME280;45870;42.528;26.740;2022-10-31T11:48:00;100102.81;;;28.34;25.86
60019;BME280;45870;42.528;26.740;2022-10-31T11:50:34;100021.59;;;27.71;25.74
60019;BME280;45870;42.528;26.740;2022-10-31T11:53:04;100102.34;;;28.32;25.78
60019;BME280;45870;42.528;26.740;2022-10-31T11:55:39;100092.78;;;28.54;25.12
60019;BME280;45870;42.528;26.740;2022-10-31T11:58:20;100079.00;;;29.02;24.75
60019;BME280;45870;42.528;26.740;2022-10-31T12:00:51;100064.50;;;28.40;24.80
60019;BME280;45870;42.528;26.740;2022-10-31T12:03:33;100096.81;;;29.13;24.29
60019;BME280;45870;42.528;26.740;2022-10-31T12:06:09;100086.25;;;27.84;25.95
60019;BME280;45870;42.528;26.740;2022-10-31T12:08:39;99947.56;;;28.17;24.63
60019;BME280;45870;42.528;26.740;2022-10-31T12:13:37;100040.81;;;28.42;25.07
60019;BME280;45870;42.528;26.740;2022-10-31T12:16:17;100080.16;;;28.32;25.44
60019;BME280;45870;42.528;26.740;2022-10-31T12:19:07;100084.66;;;28.94;24.79
60019;BME280;45870;42.528;26.740;2022-10-31T12:24:33;100077.53;;;28.60;25.13
60019;BME280;45870;42.528;26.740;2022-10-31T12:29:41;100023.97;;;28.71;24.32
60019;BME280;45870;42.528;26.740;2022-10-31T12:35:08;100072.03;;;28.96;24.85
60019;BME280;45870;42.528;26.740;2022-10-31T12:38:07;100071.69;;;28.73;24.47
60019;BME280;45870;42.528;26.740;2022-10-31T12:40:53;100074.59;;;28.77;24.46
60019;BME280;45870;42.528;26.740;2022-10-31T12:46:19;100079.84;;;27.21;26.36
60019;BME280;45870;42.528;26.740;2022-10-31T12:57:08;100068.22;;;28.44;24.98
60019;BME280;45870;42.528;26.740;2022-10-31T12:59:43;100076.66;;;28.80;24.64
60019;BME280;45870;42.528;26.740;2022-10-31T13:04:55;100075.53;;;28.48;25.04
60019;BME280;45870;42.528;26.740;2022-10-31T13:07:29;100057.03;;;28.07;25.69
60019;BME280;45870;42.528;26.740;2022-10-31T13:12:39;100076.22;;;28.45;24.78
60019;BME280;45870;42.528;26.740;2022-10-31T13:15:18;100090.06;;;28.00;25.35
60019;BME280;45870;42.528;26.740;2022-10-31T13:17:48;100096.53;;;27.63;26.04
60019;BME280;45870;42.528;26.740;2022-10-31T13:20:28;100090.69;;;27.64;26.05
60019;BME280;45870;42.528;26.740;2022-10-31T13:23:12;100092.53;;;28.47;25.06
60019;BME280;45870;42.528;26.740;2022-10-31T13:25:47;100096.25;;;29.44;23.94
60019;BME280;45870;42.528;26.740;2022-10-31T13:30:58;100105.41;;;30.24;22.68
60019;BME280;45870;42.528;26.740;2022-10-31T13:33:39;100098.88;;;30.76;21.81
60019;BME280;45870;42.528;26.740;2022-10-31T13:36:28;100095.16;;;32.04;20.76
60019;BME280;45870;42.528;26.740;2022-10-31T13:41:53;100097.69;;;30.34;22.71
60019;BME280;45870;42.528;26.740;2022-10-31T13:46:52;100104.72;;;30.87;21.83
60019;BME280;45870;42.528;26.740;2022-10-31T13:51:52;100111.00;;;30.24;22.30
60019;BME280;45870;42.528;26.740;2022-10-31T13:54:30;100105.44;;;29.85;23.23
60019;BME280;45870;42.528;26.740;2022-10-31T13:56:57;100089.28;;;29.50;23.36
60019;BME280;45870;42.528;26.740;2022-10-31T13:59:24;100105.19;;;29.38;23.89
60019;BME280;45870;42.528;26.740;2022-10-31T14:01:57;100101.16;;;29.75;23.32
60019;BME280;45870;42.528;26.740;2022-10-31T14:04:37;100102.56;;;30.37;22.61
60019;BME280;45870;42.528;26.740;2022-10-31T14:07:09;100109.91;;;29.61;23.69
60019;BME280;45870;42.528;26.740;2022-10-31T14:12:08;100109.81;;;29.34;23.97
60019;BME280;45870;42.528;26.740;2022-10-31T14:14:47;100122.16;;;29.72;23.18
60019;BME280;45870;42.528;26.740;2022-10-31T14:17:20;100091.16;;;30.54;22.77
60019;BME280;45870;42.528;26.740;2022-10-31T14:20:00;100117.94;;;30.90;22.12
60019;BME280;45870;42.528;26.740;2022-10-31T14:22:31;100117.44;;;28.88;24.88
60019;BME280;45870;42.528;26.740;2022-10-31T14:24:58;100128.69;;;28.59;25.51